Time;durP1;ratioP1;P1;durP2;ratioP2;P2;SDS_P1;SDS_P2;PMS_P1;PMS_P2;Temp;Humidity;BMP_temperature;BMP_pressure;BME280_temperature;BME280_humidity;BME280_pressure;Samples;Min_cycle;Max_cycle;Signal;HPM_P1;HPM_P2
2024/01/30 00:01:52;;;;;;;13.68;8.00;;;6.20;99.90;;;;;;5069749;28;20028;-63
2024/01/30 00:04:18;;;;;;;18.67;8.25;;;6.30;99.90;;;;;;5071420;28;20040;-63
2024/01/30 00:06:44;;;;;;;15.68;7.20;;;6.30;99.90;;;;;;5070664;28;20040;-63
2024/01/30 00:09:10;;;;;;;17.17;8.05;;;6.30;99.90;;;;;;5065208;28;20036;-65
2024/01/30 00:11:36;;;;;;;25.80;8.55;;;6.30;99.90;;;;;;5068552;28;20012;-67
2024/01/30 00:14:03;;;;;;;14.18;7.70;;;6.30;99.90;;;;;;5065583;28;20546;-64
2024/01/30 00:16:28;;;;;;;11.98;7.43;;;6.30;99.90;;;;;;5065648;28;20028;-63
2024/01/30 00:18:54;;;;;;;17.10;7.82;;;6.20;99.90;;;;;;5065338;28;20024;-63
2024/01/30 00:21:21;;;;;;;17.00;7.93;;;6.20;99.90;;;;;;5070591;28;20024;-64
2024/01/30 00:23:46;;;;;;;15.07;7.70;;;6.20;99.90;;;;;;5069139;28;20024;-63
2024/01/30 00:26:12;;;;;;;22.20;8.57;;;6.20;99.90;;;;;;5064494;28;20375;-63
2024/01/30 00:28:38;;;;;;;15.30;8.18;;;6.10;99.90;;;;;;5062698;28;20024;-63
2024/01/30 00:31:04;;;;;;;17.98;8.35;;;6.10;99.90;;;;;;5064788;28;20024;-63
2024/01/30 00:33:30;;;;;;;14.10;7.68;;;6.00;99.90;;;;;;5069568;28;20153;-63
2024/01/30 00:35:56;;;;;;;16.80;7.60;;;6.00;99.90;;;;;;5067808;28;20111;-63
2024/01/30 00:38:22;;;;;;;17.83;8.25;;;6.00;99.90;;;;;;5068668;28;20111;-63
2024/01/30 00:40:48;;;;;;;15.43;8.80;;;5.90;99.90;;;;;;5063296;28;20036;-64
2024/01/30 00:43:13;;;;;;;15.23;8.35;;;5.90;99.90;;;;;;5065991;28;20111;-63
2024/01/30 00:45:39;;;;;;;14.82;7.47;;;5.90;99.90;;;;;;5068884;28;20028;-63
2024/01/30 00:48:05;;;;;;;16.95;9.05;;;5.90;99.90;;;;;;5065513;28;20032;-63
2024/01/30 00:50:31;;;;;;;16.83;8.38;;;5.80;99.90;;;;;;5069025;28;20398;-64
2024/01/30 00:52:56;;;;;;;18.48;7.63;;;5.80;99.90;;;;;;5066533;28;20036;-63
2024/01/30 00:55:22;;;;;;;17.27;8.30;;;5.80;99.90;;;;;;5062600;28;20024;-64
2024/01/30 00:57:48;;;;;;;20.02;8.82;;;5.80;99.90;;;;;;5057655;28;20067;-60
2024/01/30 01:00:16;;;;;;;21.33;9.07;;;5.80;99.90;;;;;;5062810;28;20645;-62
2024/01/30 01:02:43;;;;;;;18.45;8.32;;;5.80;99.90;;;;;;5063235;28;20070;-61
2024/01/30 01:05:08;;;;;;;14.93;7.22;;;5.80;99.90;;;;;;5058618;28;20052;-62
2024/01/30 01:07:34;;;;;;;14.53;8.10;;;5.80;99.90;;;;;;5063268;28;20109;-63
2024/01/30 01:10:00;;;;;;;12.65;8.30;;;5.80;99.90;;;;;;5069105;28;20020;-62
2024/01/30 01:12:26;;;;;;;15.10;8.38;;;5.80;99.90;;;;;;5065234;28;20051;-62
2024/01/30 01:14:52;;;;;;;15.50;7.75;;;5.80;99.90;;;;;;5064814;28;20483;-62
2024/01/30 01:17:18;;;;;;;15.38;8.82;;;5.80;99.90;;;;;;5065282;28;20020;-63
2024/01/30 01:19:44;;;;;;;16.88;7.75;;;5.90;99.90;;;;;;5066058;28;20023;-63
2024/01/30 01:22:10;;;;;;;16.23;9.27;;;5.90;99.90;;;;;;5065898;28;20033;-62
2024/01/30 01:24:36;;;;;;;18.70;8.25;;;5.90;99.90;;;;;;5064108;28;20028;-62
2024/01/30 01:27:02;;;;;;;17.17;8.63;;;5.90;99.90;;;;;;5065068;28;20435;-62
2024/01/30 01:29:28;;;;;;;17.27;8.02;;;5.90;99.90;;;;;;5072873;28;20039;-60
2024/01/30 01:31:55;;;;;;;16.65;8.00;;;5.90;99.90;;;;;;5071868;28;20024;-62
2024/01/30 01:34:21;;;;;;;16.48;8.48;;;6.00;99.90;;;;;;5071537;28;20661;-62
2024/01/30 01:36:47;;;;;;;16.67;7.90;;;6.00;99.90;;;;;;5069016;28;20101;-61
2024/01/30 01:39:12;;;;;;;22.00;8.68;;;6.00;99.90;;;;;;5071240;28;20394;-62
2024/01/30 01:41:38;;;;;;;14.65;8.13;;;6.00;99.90;;;;;;5067872;28;20528;-62
2024/01/30 01:44:05;;;;;;;14.77;7.55;;;6.00;99.90;;;;;;5065378;28;20025;-62
2024/01/30 01:46:33;;;;;;;15.27;7.40;;;6.00;99.90;;;;;;5066607;28;20509;-63
2024/01/30 01:48:59;;;;;;;19.55;8.48;;;6.10;99.90;;;;;;5062646;28;20021;-62
2024/01/30 01:51:27;;;;;;;15.55;7.68;;;6.10;99.90;;;;;;5063115;28;20032;-63
2024/01/30 01:53:54;;;;;;;19.25;8.02;;;6.20;99.90;;;;;;5068643;28;20032;-62
2024/01/30 01:56:21;;;;;;;16.58;7.70;;;6.10;99.90;;;;;;5071779;28;20492;-59
2024/01/30 01:58:49;;;;;;;17.23;7.43;;;6.10;99.90;;;;;;5073712;28;20615;-62
2024/01/30 02:01:18;;;;;;;20.95;8.57;;;6.20;99.90;;;;;;5069051;28;20024;-63
2024/01/30 02:03:45;;;;;;;17.77;7.40;;;6.20;99.90;;;;;;5067062;28;20025;-61
2024/01/30 02:06:11;;;;;;;16.65;7.20;;;6.20;99.90;;;;;;5068210;28;20655;-61
2024/01/30 02:08:38;;;;;;;14.60;7.40;;;6.10;99.90;;;;;;5069661;28;20052;-61
2024/01/30 02:11:04;;;;;;;12.82;6.57;;;6.10;99.90;;;;;;5042777;28;20044;-62
2024/01/30 02:13:29;;;;;;;11.35;7.28;;;6.00;99.90;;;;;;5063907;28;20425;-62
2024/01/30 02:15:55;;;;;;;14.95;6.93;;;6.00;99.90;;;;;;5069198;28;20028;-61
2024/01/30 02:18:23;;;;;;;21.35;7.90;;;6.00;99.90;;;;;;5051691;28;20032;-63
2024/01/30 02:20:53;;;;;;;17.77;7.68;;;6.10;99.90;;;;;;5065744;28;20074;-62
2024/01/30 02:23:19;;;;;;;21.80;6.85;;;6.10;99.90;;;;;;5067207;28;20042;-63
2024/01/30 02:25:45;;;;;;;18.80;7.40;;;6.20;99.90;;;;;;5065706;28;20039;-62
2024/01/30 02:28:12;;;;;;;18.02;7.07;;;6.20;99.90;;;;;;5047162;28;20029;-62
2024/01/30 02:30:42;;;;;;;13.00;6.57;;;6.20;99.90;;;;;;5068943;28;20094;-62
2024/01/30 02:33:08;;;;;;;14.10;7.63;;;6.30;99.90;;;;;;5065799;28;20059;-62
2024/01/30 02:35:34;;;;;;;12.32;7.00;;;6.40;99.90;;;;;;5072136;28;20051;-63
2024/01/30 02:37:59;;;;;;;10.77;6.43;;;6.40;99.90;;;;;;5070522;28;20125;-62
2024/01/30 02:40:25;;;;;;;13.35;7.10;;;6.40;99.90;;;;;;5066221;28;20020;-62
2024/01/30 02:42:51;;;;;;;16.88;7.53;;;6.40;99.90;;;;;;5072102;28;20402;-62
2024/01/30 02:45:16;;;;;;;15.77;7.25;;;6.40;99.90;;;;;;5069353;28;20032;-61
2024/01/30 02:47:42;;;;;;;14.85;7.22;;;6.50;99.90;;;;;;5069873;28;20032;-61
2024/01/30 02:50:08;;;;;;;13.75;6.85;;;6.50;99.90;;;;;;5068334;28;20481;-62
2024/01/30 02:52:34;;;;;;;12.10;6.63;;;6.50;99.90;;;;;;5068293;28;20070;-63
2024/01/30 02:55:00;;;;;;;15.90;6.70;;;6.50;99.90;;;;;;5067094;28;20032;-62
2024/01/30 02:57:25;;;;;;;13.35;7.32;;;6.50;99.90;;;;;;5068103;28;20437;-62
2024/01/30 02:59:51;;;;;;;21.08;7.13;;;6.50;99.90;;;;;;5065504;28;20147;-62
2024/01/30 03:02:17;;;;;;;17.25;7.10;;;6.50;99.90;;;;;;5065547;28;20359;-63
2024/01/30 03:04:42;;;;;;;16.13;7.38;;;6.40;99.90;;;;;;5066235;28;20043;-62
2024/01/30 03:07:08;;;;;;;13.98;6.70;;;6.50;99.90;;;;;;5066781;28;20067;-62
2024/01/30 03:09:34;;;;;;;14.15;6.47;;;6.50;99.90;;;;;;5064109;28;20740;-62
2024/01/30 03:12:00;;;;;;;12.23;6.93;;;6.40;99.90;;;;;;5071339;28;20040;-61
2024/01/30 03:14:26;;;;;;;16.05;7.82;;;6.40;99.90;;;;;;5063200;28;20394;-63
2024/01/30 03:16:52;;;;;;;14.32;6.70;;;6.40;99.90;;;;;;5066296;28;20029;-62
2024/01/30 03:19:18;;;;;;;14.13;6.00;;;6.40;99.90;;;;;;5065293;28;20470;-62
2024/01/30 03:21:44;;;;;;;14.15;7.65;;;6.40;99.90;;;;;;5065457;28;20032;-62
2024/01/30 03:24:09;;;;;;;18.42;8.82;;;6.40;99.90;;;;;;5064961;28;20036;-62
2024/01/30 03:26:35;;;;;;;19.50;7.70;;;6.40;99.90;;;;;;5069684;28;20029;-61
2024/01/30 03:29:01;;;;;;;16.17;7.10;;;6.40;99.90;;;;;;5069159;28;20443;-62
2024/01/30 03:31:27;;;;;;;12.95;6.85;;;6.30;99.90;;;;;;5062899;28;20025;-63
2024/01/30 03:33:52;;;;;;;16.17;6.75;;;6.30;99.90;;;;;;5063840;28;20020;-63
2024/01/30 03:36:18;;;;;;;15.23;6.78;;;6.30;99.90;;;;;;5063025;28;20036;-63
2024/01/30 03:38:43;;;;;;;19.55;7.22;;;6.30;99.90;;;;;;5060831;28;20028;-62
2024/01/30 03:41:10;;;;;;;17.27;6.80;;;6.30;99.90;;;;;;5064090;28;20025;-62
2024/01/30 03:43:36;;;;;;;14.65;6.70;;;6.30;99.90;;;;;;5063543;28;20036;-61
2024/01/30 03:46:02;;;;;;;14.77;7.70;;;6.20;99.90;;;;;;5063940;28;20047;-63
2024/01/30 03:48:29;;;;;;;13.63;7.72;;;6.10;99.90;;;;;;5063171;28;20025;-61
2024/01/30 03:50:54;;;;;;;24.45;7.65;;;6.10;99.90;;;;;;5061004;28;20032;-61
2024/01/30 03:53:20;;;;;;;11.48;7.03;;;6.00;99.90;;;;;;5063384;28;20584;-60
2024/01/30 03:55:46;;;;;;;14.27;7.57;;;6.00;99.90;;;;;;5068246;28;20039;-62
2024/01/30 03:58:11;;;;;;;13.27;7.20;;;6.00;99.90;;;;;;5064858;28;20127;-62
2024/01/30 04:00:37;;;;;;;13.18;6.97;;;5.90;99.90;;;;;;5071241;28;20390;-62
2024/01/30 04:03:03;;;;;;;12.27;7.00;;;5.90;99.90;;;;;;5071252;28;20123;-62
2024/01/30 04:05:29;;;;;;;22.30;7.40;;;5.90;99.90;;;;;;5068936;28;20036;-62
2024/01/30 04:07:54;;;;;;;10.52;6.25;;;6.00;99.90;;;;;;5064733;28;20021;-62
2024/01/30 04:10:20;;;;;;;19.13;7.32;;;6.00;99.90;;;;;;5067207;28;20029;-62
2024/01/30 04:12:45;;;;;;;16.70;7.15;;;5.90;99.90;;;;;;5063886;28;20408;-61
2024/01/30 04:15:13;;;;;;;11.65;6.38;;;5.90;99.90;;;;;;5068973;28;20024;-62
2024/01/30 04:17:39;;;;;;;14.05;6.95;;;5.80;99.90;;;;;;5069587;28;20033;-62
2024/01/30 04:20:05;;;;;;;12.13;6.22;;;5.80;99.90;;;;;;5052759;28;20043;-63
2024/01/30 04:22:31;;;;;;;13.77;6.78;;;5.80;99.90;;;;;;5066062;28;20032;-62
2024/01/30 04:24:57;;;;;;;11.82;6.32;;;5.70;99.90;;;;;;5067403;28;20033;-62
2024/01/30 04:27:22;;;;;;;13.38;7.28;;;5.70;99.90;;;;;;5071267;28;20095;-61
2024/01/30 04:29:48;;;;;;;14.40;7.93;;;5.70;99.90;;;;;;5070284;28;20094;-62
2024/01/30 04:32:14;;;;;;;12.70;7.20;;;5.70;99.90;;;;;;5069359;28;20021;-62
2024/01/30 04:34:39;;;;;;;17.65;7.97;;;5.70;99.90;;;;;;5070067;28;20119;-62
2024/01/30 04:37:05;;;;;;;18.02;7.70;;;5.70;99.90;;;;;;5069443;28;20161;-62
2024/01/30 04:39:32;;;;;;;15.38;7.68;;;5.70;99.90;;;;;;5068334;28;20494;-63
2024/01/30 04:41:59;;;;;;;17.33;7.75;;;5.70;99.90;;;;;;5066641;28;20505;-63
2024/01/30 04:44:24;;;;;;;16.50;6.90;;;5.80;99.90;;;;;;5065295;28;20020;-63
2024/01/30 04:46:50;;;;;;;14.68;6.93;;;5.80;99.90;;;;;;5061213;28;20043;-63
2024/01/30 04:49:15;;;;;;;12.02;7.28;;;5.80;99.90;;;;;;5069144;28;20067;-63
2024/01/30 04:51:41;;;;;;;12.45;6.43;;;5.90;99.90;;;;;;5071003;28;20025;-63
2024/01/30 04:54:07;;;;;;;16.02;6.90;;;5.90;99.90;;;;;;5069604;28;20025;-63
2024/01/30 04:56:32;;;;;;;13.55;6.13;;;5.90;99.90;;;;;;5070013;28;20040;-62
2024/01/30 04:58:58;;;;;;;13.52;7.43;;;5.80;99.90;;;;;;5070011;28;20037;-63
2024/01/30 05:01:23;;;;;;;15.73;7.63;;;5.80;99.90;;;;;;5068084;28;20068;-64
2024/01/30 05:03:49;;;;;;;15.00;6.45;;;5.70;99.90;;;;;;5070481;28;20525;-63
2024/01/30 05:06:24;;;;;;;14.40;7.80;;;5.70;99.90;;;;;;5068320;28;20052;-63
2024/01/30 05:08:50;;;;;;;15.05;8.23;;;5.60;99.90;;;;;;5067443;28;20079;-63
2024/01/30 05:11:15;;;;;;;15.07;7.28;;;5.60;99.90;;;;;;5068715;28;20056;-63
2024/01/30 05:13:41;;;;;;;16.45;6.40;;;5.50;99.90;;;;;;5068597;28;20379;-63
2024/01/30 05:16:07;;;;;;;17.48;7.32;;;5.50;99.90;;;;;;5067166;28;20027;-63
2024/01/30 05:18:32;;;;;;;17.45;7.20;;;5.40;99.90;;;;;;5066586;28;20387;-63
2024/01/30 05:20:59;;;;;;;15.90;8.05;;;5.30;99.90;;;;;;5064609;28;20044;-63
2024/01/30 05:23:25;;;;;;;14.52;7.72;;;5.40;99.90;;;;;;5069411;28;20846;-61
2024/01/30 05:25:51;;;;;;;14.43;7.30;;;5.40;99.90;;;;;;5068323;28;20029;-63
2024/01/30 05:28:16;;;;;;;13.98;7.15;;;5.40;99.90;;;;;;5066514;28;20074;-63
2024/01/30 05:30:42;;;;;;;14.43;7.32;;;5.30;99.90;;;;;;5064509;28;20021;-63
2024/01/30 05:33:08;;;;;;;16.73;6.75;;;5.30;99.90;;;;;;5069182;28;20071;-63
2024/01/30 05:35:33;;;;;;;17.20;8.15;;;5.20;99.90;;;;;;5069260;28;20036;-62
2024/01/30 05:37:59;;;;;;;12.85;7.05;;;5.10;99.90;;;;;;5070264;28;20024;-63
2024/01/30 05:40:24;;;;;;;13.60;6.93;;;5.10;99.90;;;;;;5067131;28;20449;-63
2024/01/30 05:42:50;;;;;;;18.50;8.13;;;5.10;99.90;;;;;;5066744;28;20031;-63
2024/01/30 05:45:16;;;;;;;19.45;8.18;;;5.00;99.90;;;;;;5064785;28;20021;-63
2024/01/30 05:47:41;;;;;;;17.35;8.00;;;5.00;99.90;;;;;;5053623;28;20041;-63
2024/01/30 05:50:07;;;;;;;16.10;7.28;;;5.00;99.90;;;;;;5069534;28;20375;-63
2024/01/30 05:52:33;;;;;;;15.88;7.00;;;5.00;99.90;;;;;;5069336;28;20040;-63
2024/01/30 05:54:58;;;;;;;15.48;6.68;;;4.90;99.90;;;;;;5069956;28;20031;-64
2024/01/30 05:57:24;;;;;;;17.08;7.35;;;4.90;99.90;;;;;;5072460;28;20028;-64
2024/01/30 05:59:51;;;;;;;20.42;8.52;;;4.90;99.90;;;;;;5067872;28;20032;-62
2024/01/30 06:02:17;;;;;;;18.73;8.45;;;4.90;99.90;;;;;;5070246;28;20028;-63
2024/01/30 06:04:44;;;;;;;15.57;7.03;;;4.90;99.90;;;;;;5072372;28;20074;-63
2024/01/30 06:07:09;;;;;;;17.45;8.38;;;4.90;99.90;;;;;;5071265;28;20020;-63
2024/01/30 06:09:35;;;;;;;25.25;9.10;;;5.00;99.90;;;;;;5069207;28;20028;-62
2024/01/30 06:12:01;;;;;;;21.20;8.15;;;5.00;99.90;;;;;;5071768;28;20086;-62
2024/01/30 06:14:26;;;;;;;10.20;6.53;;;5.00;99.90;;;;;;5069446;28;20020;-63
2024/01/30 06:16:52;;;;;;;15.48;8.10;;;5.00;99.90;;;;;;5065137;28;20078;-63
2024/01/30 06:19:17;;;;;;;15.82;6.93;;;5.00;99.90;;;;;;5066700;28;20056;-63
2024/01/30 06:21:45;;;;;;;12.02;6.85;;;5.00;99.90;;;;;;5061925;28;20032;-62
2024/01/30 06:24:10;;;;;;;15.80;7.50;;;5.00;99.90;;;;;;5071109;28;20098;-63
2024/01/30 06:26:36;;;;;;;12.48;7.53;;;5.00;99.90;;;;;;5063449;28;20487;-62
2024/01/30 06:29:01;;;;;;;18.45;7.00;;;5.00;99.90;;;;;;5069761;28;20039;-63
2024/01/30 06:31:27;;;;;;;14.63;7.75;;;4.90;99.90;;;;;;5067384;28;20151;-63
2024/01/30 06:33:53;;;;;;;14.05;7.13;;;4.90;99.90;;;;;;5058907;28;20084;-64
2024/01/30 06:36:18;;;;;;;14.10;7.03;;;4.90;99.90;;;;;;5067432;28;20059;-65
2024/01/30 06:38:44;;;;;;;14.95;7.50;;;4.90;99.90;;;;;;5068351;28;20029;-61
2024/01/30 06:41:10;;;;;;;12.70;7.47;;;4.90;99.90;;;;;;5062808;28;20094;-63
2024/01/30 06:43:35;;;;;;;12.52;7.22;;;4.90;99.90;;;;;;5069766;28;20021;-63
2024/01/30 06:46:01;;;;;;;16.58;8.23;;;4.90;99.90;;;;;;5070576;28;20036;-63
2024/01/30 06:48:26;;;;;;;14.73;6.85;;;5.00;99.90;;;;;;5050363;28;20055;-63
2024/01/30 06:50:57;;;;;;;16.95;8.10;;;5.00;99.90;;;;;;5070470;28;20025;-63
2024/01/30 06:53:23;;;;;;;19.02;8.48;;;5.10;99.90;;;;;;5071602;28;20043;-63
2024/01/30 06:55:48;;;;;;;13.57;7.47;;;5.10;99.90;;;;;;5072221;28;20032;-62
2024/01/30 06:58:14;;;;;;;18.27;6.97;;;5.20;99.90;;;;;;5095296;22;20116;-58
2024/01/30 07:00:39;;;;;;;15.88;7.60;;;5.20;99.90;;;;;;5104357;28;20023;-59
2024/01/30 07:03:06;;;;;;;19.10;7.90;;;5.30;99.90;;;;;;5111170;27;20460;-58
2024/01/30 07:05:31;;;;;;;19.65;7.93;;;5.40;99.90;;;;;;5106921;27;20441;-58
2024/01/30 07:07:57;;;;;;;25.13;8.80;;;5.50;99.90;;;;;;5085201;28;20056;-59
2024/01/30 07:10:23;;;;;;;12.15;7.50;;;5.50;99.90;;;;;;5086212;28;20408;-59
2024/01/30 07:12:48;;;;;;;22.80;8.63;;;5.60;99.90;;;;;;5090401;28;20024;-57
2024/01/30 07:15:17;;;;;;;17.90;8.20;;;5.70;99.90;;;;;;5083901;28;20646;-58
2024/01/30 07:17:42;;;;;;;17.05;7.97;;;5.70;99.90;;;;;;5087366;28;20413;-58
2024/01/30 07:20:09;;;;;;;13.48;7.32;;;5.80;99.90;;;;;;5085301;28;20089;-57
2024/01/30 07:22:34;;;;;;;13.57;6.93;;;5.80;99.90;;;;;;5091085;28;20603;-59
2024/01/30 07:25:00;;;;;;;15.00;8.77;;;5.80;99.90;;;;;;5090646;28;20032;-58
2024/01/30 07:27:26;;;;;;;20.00;10.30;;;5.80;99.90;;;;;;5087967;28;20027;-59
2024/01/30 07:29:51;;;;;;;17.38;9.40;;;5.80;99.90;;;;;;5068855;28;20486;-58
2024/01/30 07:32:18;;;;;;;44.58;20.58;;;5.80;99.90;;;;;;5080946;28;20031;-59
2024/01/30 07:34:44;;;;;;;45.45;20.30;;;5.80;99.90;;;;;;5085706;28;20511;-60
2024/01/30 07:37:10;;;;;;;44.80;19.88;;;5.80;99.90;;;;;;5095287;28;20024;-59
2024/01/30 07:39:36;;;;;;;30.48;15.82;;;5.80;99.90;;;;;;5097641;28;20496;-60
2024/01/30 07:42:02;;;;;;;25.73;10.90;;;5.80;99.90;;;;;;5085866;28;20051;-60
2024/01/30 07:44:28;;;;;;;18.15;9.02;;;5.90;99.90;;;;;;5087874;28;20113;-59
2024/01/30 07:46:54;;;;;;;18.48;7.95;;;5.90;99.90;;;;;;5083966;28;20107;-58
2024/01/30 07:49:20;;;;;;;17.60;7.78;;;5.90;99.90;;;;;;5089267;28;20103;-58
2024/01/30 07:51:46;;;;;;;22.23;9.23;;;6.00;99.90;;;;;;5087990;28;20146;-60
2024/01/30 07:54:15;;;;;;;22.23;6.93;;;6.00;99.90;;;;;;5088737;28;20103;-59
2024/01/30 08:03:24;;;;;;;17.30;7.18;;;6.40;99.90;;;;;;5088745;28;20090;-59
2024/01/30 08:05:50;;;;;;;15.05;6.38;;;6.40;99.90;;;;;;5089790;28;20460;-56
2024/01/30 08:08:15;;;;;;;13.40;7.82;;;6.50;99.90;;;;;;5091123;28;20028;-59
2024/01/30 08:10:41;;;;;;;17.00;6.72;;;6.60;99.90;;;;;;5097815;28;20032;-59
2024/01/30 08:13:08;;;;;;;17.80;7.22;;;6.70;99.90;;;;;;5086858;28;20036;-59
2024/01/30 08:15:34;;;;;;;16.17;7.20;;;6.80;99.90;;;;;;5087903;28;20024;-60
2024/01/30 08:18:00;;;;;;;13.20;6.60;;;6.90;99.90;;;;;;5089174;28;20039;-59
2024/01/30 08:20:26;;;;;;;13.10;6.30;;;6.90;99.90;;;;;;5089797;28;20481;-58
2024/01/30 08:22:52;;;;;;;13.40;6.20;;;7.00;99.90;;;;;;5089621;28;20058;-59
2024/01/30 08:25:17;;;;;;;12.15;6.65;;;7.00;99.90;;;;;;5088072;28;20035;-57
2024/01/30 08:27:43;;;;;;;13.02;6.72;;;7.10;99.90;;;;;;5091303;28;20020;-59
2024/01/30 08:30:09;;;;;;;16.02;6.60;;;7.20;99.90;;;;;;5088503;28;20024;-59
2024/01/30 08:32:35;;;;;;;10.05;5.97;;;7.20;99.90;;;;;;5088002;28;20059;-57
2024/01/30 08:35:03;;;;;;;9.88;5.18;;;7.20;99.90;;;;;;5093355;28;20529;-58
2024/01/30 08:37:29;;;;;;;10.50;5.65;;;7.30;99.90;;;;;;5090948;28;20020;-59
2024/01/30 08:39:55;;;;;;;17.48;5.97;;;7.30;99.90;;;;;;5088601;28;20448;-57
2024/01/30 08:42:22;;;;;;;16.52;6.40;;;7.30;99.90;;;;;;5084294;28;20036;-58
2024/01/30 08:44:49;;;;;;;11.70;6.47;;;7.30;99.90;;;;;;5087282;28;20032;-60
2024/01/30 08:47:16;;;;;;;9.55;5.20;;;7.30;99.90;;;;;;5090812;28;20760;-56
2024/01/30 08:49:44;;;;;;;14.35;5.53;;;7.40;99.90;;;;;;5089343;28;20032;-57
2024/01/30 08:52:12;;;;;;;10.70;6.30;;;7.50;99.90;;;;;;5088737;28;20027;-56
2024/01/30 08:54:38;;;;;;;9.93;5.78;;;7.50;99.90;;;;;;5087094;28;20036;-58
2024/01/30 08:57:04;;;;;;;9.85;5.93;;;7.50;99.90;;;;;;5071647;28;20031;-58
2024/01/30 08:59:30;;;;;;;10.73;6.18;;;7.60;99.90;;;;;;5097477;28;20036;-59
2024/01/30 09:01:57;;;;;;;11.15;5.90;;;7.60;99.90;;;;;;5089943;28;21517;-60
2024/01/30 09:04:23;;;;;;;18.45;6.30;;;7.60;99.90;;;;;;5085118;28;20040;-58
2024/01/30 09:06:50;;;;;;;20.35;6.40;;;7.60;99.90;;;;;;5090038;28;20028;-59
2024/01/30 09:09:15;;;;;;;10.10;6.00;;;7.60;99.90;;;;;;5088252;28;20067;-58
2024/01/30 09:11:41;;;;;;;14.02;5.70;;;7.70;99.90;;;;;;5085287;28;20070;-59
2024/01/30 09:14:07;;;;;;;12.70;5.93;;;7.80;99.90;;;;;;5079119;28;20491;-59
2024/01/30 09:16:32;;;;;;;19.88;7.95;;;7.90;99.90;;;;;;5084731;28;20035;-58
2024/01/30 09:18:58;;;;;;;18.90;8.57;;;8.00;99.90;;;;;;5083814;28;20024;-59
2024/01/30 09:21:23;;;;;;;18.63;9.48;;;8.10;99.90;;;;;;5093069;28;20078;-59
2024/01/30 09:23:49;;;;;;;14.40;6.85;;;8.20;99.90;;;;;;5092264;28;20107;-56
2024/01/30 09:26:15;;;;;;;15.57;6.47;;;8.40;99.90;;;;;;5091902;28;20120;-58
2024/01/30 09:28:42;;;;;;;10.18;5.40;;;8.50;99.90;;;;;;5087812;28;20455;-57
2024/01/30 09:31:12;;;;;;;16.67;5.88;;;8.70;99.90;;;;;;5091159;28;20021;-58
2024/01/30 09:33:38;;;;;;;10.73;5.38;;;8.70;99.90;;;;;;5087113;28;20020;-59
2024/01/30 09:36:05;;;;;;;9.25;4.70;;;8.80;99.90;;;;;;5093493;28;20520;-59
2024/01/30 09:38:31;;;;;;;10.45;5.10;;;8.80;99.90;;;;;;5098887;28;20076;-60
2024/01/30 09:41:03;;;;;;;18.63;5.50;;;8.90;99.90;;;;;;5092749;28;20126;-59
2024/01/30 09:43:33;;;;;;;13.27;5.68;;;8.90;99.90;;;;;;5092845;28;20032;-58
2024/01/30 09:46:02;;;;;;;11.60;6.07;;;9.10;99.90;;;;;;5100205;28;20054;-59
2024/01/30 09:48:28;;;;;;;13.65;5.18;;;9.20;99.90;;;;;;5088726;28;20035;-60
2024/01/30 09:50:54;;;;;;;12.50;5.22;;;9.20;99.90;;;;;;5096425;28;20106;-60
2024/01/30 09:53:21;;;;;;;11.98;5.18;;;9.40;99.90;;;;;;5094570;28;20027;-59
2024/01/30 09:55:47;;;;;;;11.88;5.80;;;9.70;99.90;;;;;;5090514;28;20420;-60
2024/01/30 09:58:13;;;;;;;12.90;6.30;;;9.90;99.90;;;;;;5097549;28;20031;-59
2024/01/30 10:00:39;;;;;;;12.63;5.53;;;10.10;99.90;;;;;;5091347;28;21886;-59
2024/01/30 10:03:05;;;;;;;10.73;5.90;;;10.20;99.90;;;;;;5091142;28;20119;-60
2024/01/30 10:05:33;;;;;;;9.20;5.43;;;10.30;99.90;;;;;;5080277;28;20072;-58
2024/01/30 10:07:59;;;;;;;12.02;5.25;;;10.40;99.90;;;;;;5097351;28;20039;-60
2024/01/30 10:10:25;;;;;;;12.48;5.15;;;10.40;99.90;;;;;;5092049;28;20489;-59
2024/01/30 10:12:51;;;;;;;12.05;6.10;;;10.60;99.90;;;;;;5093920;28;20074;-59
2024/01/30 10:15:18;;;;;;;9.82;4.70;;;10.70;99.90;;;;;;5089297;28;20060;-59
2024/01/30 10:17:45;;;;;;;10.20;5.38;;;10.70;99.90;;;;;;5092661;28;20538;-58
2024/01/30 10:20:11;;;;;;;10.65;6.15;;;10.60;99.90;;;;;;5088307;28;20027;-59
2024/01/30 10:22:37;;;;;;;12.23;5.85;;;10.70;99.90;;;;;;5097832;28;20397;-57
2024/01/30 10:25:03;;;;;;;12.07;5.45;;;10.50;99.90;;;;;;5102873;28;20135;-59
2024/01/30 10:27:29;;;;;;;12.07;4.82;;;10.40;99.90;;;;;;5095166;28;20028;-57
2024/01/30 10:29:55;;;;;;;9.77;5.65;;;10.40;99.90;;;;;;5093011;28;20032;-56
2024/01/30 10:32:21;;;;;;;16.17;7.85;;;10.60;99.90;;;;;;5071279;28;20032;-58
2024/01/30 10:34:47;;;;;;;13.57;6.03;;;10.60;99.90;;;;;;5083187;28;20027;-60
2024/01/30 10:37:15;;;;;;;12.82;5.38;;;10.60;99.90;;;;;;5092691;28;20031;-58
2024/01/30 10:39:42;;;;;;;11.23;5.35;;;10.80;99.90;;;;;;5088745;28;20035;-59
2024/01/30 10:42:25;;;;;;;10.38;4.82;;;10.90;99.90;;;;;;5093621;28;20038;-59
2024/01/30 10:45:04;;;;;;;9.93;5.47;;;10.80;99.90;;;;;;5082958;28;20032;-57
2024/01/30 10:47:30;;;;;;;10.73;6.43;;;10.90;99.90;;;;;;5084694;28;20398;-59
2024/01/30 10:49:56;;;;;;;12.18;5.15;;;11.00;99.90;;;;;;5093143;28;20024;-59
2024/01/30 10:52:26;;;;;;;13.85;5.38;;;11.00;99.90;;;;;;5096505;28;20477;-59
2024/01/30 10:54:53;;;;;;;11.15;5.53;;;11.00;99.90;;;;;;5095945;28;20636;-59
2024/01/30 10:57:22;;;;;;;9.52;5.57;;;11.10;99.90;;;;;;5093291;28;20089;-59
2024/01/30 10:59:49;;;;;;;8.07;4.97;;;11.30;99.90;;;;;;5088980;28;20039;-58
2024/01/30 11:02:15;;;;;;;8.95;5.05;;;11.30;99.90;;;;;;5085191;28;20028;-59
2024/01/30 11:04:41;;;;;;;11.95;5.55;;;11.30;99.90;;;;;;5079284;28;20517;-60
2024/01/30 11:07:25;;;;;;;8.90;5.40;;;11.20;99.90;;;;;;5084029;28;20063;-60
2024/01/30 11:10:02;;;;;;;12.40;5.68;;;11.20;99.90;;;;;;5086919;28;20107;-59
2024/01/30 11:12:33;;;;;;;9.00;4.95;;;11.20;99.90;;;;;;5089626;28;20032;-59
2024/01/30 11:15:10;;;;;;;8.75;5.32;;;11.10;99.90;;;;;;5090975;28;20024;-60
2024/01/30 11:17:48;;;;;;;10.73;5.50;;;11.20;99.90;;;;;;5092751;28;20020;-59
2024/01/30 11:20:19;;;;;;;9.32;4.85;;;11.20;99.90;;;;;;5090374;28;20028;-59
2024/01/30 11:22:46;;;;;;;13.00;4.82;;;11.30;99.90;;;;;;5082550;28;20449;-58
2024/01/30 11:25:16;;;;;;;8.55;3.80;;;11.40;99.90;;;;;;5094030;28;20028;-60
2024/01/30 11:27:46;;;;;;;8.50;4.70;;;11.40;99.90;;;;;;5090627;28;20509;-60
2024/01/30 11:30:32;;;;;;;8.70;4.60;;;11.50;99.90;;;;;;5089297;28;20023;-59
2024/01/30 11:33:01;;;;;;;10.35;5.25;;;11.60;99.90;;;;;;5083783;28;20073;-59
2024/01/30 11:35:29;;;;;;;11.30;6.65;;;11.70;99.90;;;;;;5096251;28;20020;-60
2024/01/30 11:37:57;;;;;;;11.77;6.35;;;11.80;99.90;;;;;;5098222;28;20051;-60
2024/01/30 11:40:24;;;;;;;10.80;6.07;;;11.70;99.90;;;;;;5088522;28;20031;-57
2024/01/30 11:42:50;;;;;;;13.77;6.43;;;11.80;99.90;;;;;;5090211;28;20028;-60
2024/01/30 11:45:17;;;;;;;12.23;6.88;;;11.90;99.90;;;;;;5096768;28;20035;-59
2024/01/30 11:47:43;;;;;;;8.32;5.00;;;11.80;99.90;;;;;;5098929;28;20741;-59
2024/01/30 11:50:10;;;;;;;11.02;5.50;;;11.80;99.90;;;;;;5094254;28;20082;-59
2024/01/30 11:52:36;;;;;;;9.63;5.53;;;11.90;99.90;;;;;;5076348;28;20677;-60
2024/01/30 11:55:02;;;;;;;8.57;5.25;;;11.70;99.90;;;;;;5093534;28;20035;-60
2024/01/30 11:57:28;;;;;;;13.15;4.75;;;11.80;99.90;;;;;;5089058;28;20106;-59
2024/01/30 11:59:54;;;;;;;12.35;6.00;;;11.90;99.90;;;;;;5091896;28;20123;-60
2024/01/30 12:02:19;;;;;;;9.85;4.78;;;12.00;99.90;;;;;;5093117;28;20032;-59
2024/01/30 12:04:45;;;;;;;13.30;6.22;;;12.10;99.90;;;;;;5093252;28;20036;-60
2024/01/30 12:07:11;;;;;;;7.57;5.30;;;12.20;99.90;;;;;;5083653;28;20091;-59
2024/01/30 12:09:37;;;;;;;14.07;8.50;;;12.40;99.90;;;;;;5086734;28;20525;-59
2024/01/30 12:12:03;;;;;;;28.17;16.88;;;12.30;99.90;;;;;;5077992;28;20107;-59
2024/01/30 12:14:29;;;;;;;22.38;10.52;;;12.40;99.90;;;;;;5083643;28;20032;-59
2024/01/30 12:16:54;;;;;;;28.35;14.15;;;12.40;99.90;;;;;;5088373;28;20035;-60
2024/01/30 12:19:26;;;;;;;29.17;7.90;;;12.50;99.90;;;;;;5089246;28;20035;-60
2024/01/30 12:21:58;;;;;;;12.50;5.40;;;12.40;99.90;;;;;;5086223;28;20145;-60
2024/01/30 12:24:25;;;;;;;8.70;4.68;;;12.50;99.90;;;;;;5093253;28;20036;-59
2024/01/30 12:26:51;;;;;;;12.73;7.07;;;12.50;99.90;;;;;;5088084;28;20036;-59
2024/01/30 12:29:17;;;;;;;8.13;4.65;;;12.60;99.90;;;;;;5095237;28;20077;-59
2024/01/30 12:31:43;;;;;;;9.93;4.65;;;12.70;99.90;;;;;;5099002;28;20102;-59
2024/01/30 12:34:09;;;;;;;9.73;4.90;;;12.50;99.90;;;;;;5099106;28;20039;-60
2024/01/30 12:36:35;;;;;;;14.20;6.03;;;12.40;99.90;;;;;;5094534;28;20390;-60
2024/01/30 12:39:01;;;;;;;8.10;4.10;;;12.40;99.90;;;;;;5089001;28;20052;-60
2024/01/30 12:41:28;;;;;;;9.23;4.85;;;12.60;99.90;;;;;;5090266;28;20032;-60
2024/01/30 12:43:54;;;;;;;8.90;5.15;;;12.80;99.90;;;;;;5097555;28;20050;-60
2024/01/30 12:46:20;;;;;;;14.88;7.43;;;12.80;99.90;;;;;;5085991;28;20056;-60
2024/01/30 12:48:45;;;;;;;13.95;6.80;;;12.70;99.90;;;;;;5088949;28;20100;-59